Time;durP1;ratioP1;P1;durP2;ratioP2;P2;SDS_P1;SDS_P2;PMS_P1;PMS_P2;Temp;Humidity;BMP_temperature;BMP_pressure;BME280_temperature;BME280_humidity;BME280_pressure;Samples;Min_cycle;Max_cycle;Signal;HPM_P1;HPM_P2
2022/05/29 00:02:59;;;;;;;2.65;2.45;;;11.40;99.90;;;;;;6093414;29;20371;-67
2022/05/29 00:06:05;;;;;;;2.53;2.33;;;11.40;99.90;;;;;;6094120;29;20280;-68
2022/05/29 00:09:20;;;;;;;2.30;2.30;;;11.40;99.90;;;;;;6093460;29;20445;-68
2022/05/29 00:12:26;;;;;;;2.33;2.22;;;11.40;99.90;;;;;;6070151;29;20305;-67
2022/05/29 00:15:31;;;;;;;2.22;2.22;;;11.30;99.90;;;;;;6070219;29;20317;-67
2022/05/29 00:18:38;;;;;;;2.17;2.10;;;11.30;99.90;;;;;;6069999;29;20475;-67
2022/05/29 00:21:43;;;;;;;2.20;2.20;;;11.20;99.90;;;;;;6070438;29;20453;-67
2022/05/29 00:24:50;;;;;;;2.00;1.90;;;11.20;99.90;;;;;;6069751;29;20305;-67
2022/05/29 00:27:55;;;;;;;2.15;2.05;;;11.20;99.90;;;;;;6069572;29;20309;-68
2022/05/29 00:31:01;;;;;;;2.08;2.08;;;11.10;99.90;;;;;;6084465;29;20281;-67
2022/05/29 00:34:08;;;;;;;2.20;2.20;;;11.10;99.90;;;;;;6069474;29;20456;-68
2022/05/29 00:37:14;;;;;;;2.05;1.95;;;11.20;99.90;;;;;;6069563;29;20305;-67
2022/05/29 00:40:32;;;;;;;2.30;2.13;;;11.10;99.90;;;;;;6069797;29;20452;-67
2022/05/29 00:43:37;;;;;;;2.88;2.13;;;11.20;99.90;;;;;;6069504;29;20301;-67
2022/05/29 00:46:46;;;;;;;2.67;2.58;;;11.20;99.90;;;;;;6069308;29;20280;-66
2022/05/29 00:49:53;;;;;;;2.38;2.20;;;11.20;99.90;;;;;;6069081;29;20599;-68
2022/05/29 00:52:58;;;;;;;2.35;2.20;;;11.20;99.90;;;;;;6068992;29;20305;-68
2022/05/29 00:56:09;;;;;;;3.42;3.13;;;11.20;99.90;;;;;;6069623;29;20293;-67
2022/05/29 00:59:19;;;;;;;2.08;2.08;;;11.20;99.90;;;;;;6067691;29;20396;-67
2022/05/29 01:02:24;;;;;;;2.30;2.20;;;11.20;99.90;;;;;;6068743;29;20301;-68
2022/05/29 01:05:35;;;;;;;2.10;2.10;;;11.30;99.90;;;;;;6069447;29;20282;-67
2022/05/29 01:08:41;;;;;;;2.40;2.40;;;11.30;99.90;;;;;;6068938;29;20319;-67
2022/05/29 01:12:01;;;;;;;3.58;2.30;;;11.30;99.90;;;;;;6087666;29;20451;-67
2022/05/29 01:15:14;;;;;;;2.30;2.20;;;11.20;99.90;;;;;;6091387;29;20284;-69
2022/05/29 01:18:31;;;;;;;2.00;2.00;;;11.10;99.90;;;;;;6092111;29;20305;-68
2022/05/29 01:22:08;;;;;;;2.03;2.03;;;11.20;99.90;;;;;;6092257;29;20277;-70
2022/05/29 01:25:49;;;;;;;1.85;1.85;;;11.10;99.90;;;;;;6091638;29;20280;-68
2022/05/29 01:28:58;;;;;;;1.80;1.70;;;11.20;99.90;;;;;;6091439;29;20300;-67
2022/05/29 01:32:09;;;;;;;2.20;1.98;;;11.20;99.90;;;;;;6091393;29;20567;-67
2022/05/29 01:35:23;;;;;;;2.08;2.08;;;11.10;99.90;;;;;;6091972;29;20347;-68
2022/05/29 01:38:34;;;;;;;1.92;1.92;;;11.10;99.90;;;;;;6091672;29;20308;-68
2022/05/29 01:41:44;;;;;;;2.00;2.00;;;11.00;99.90;;;;;;6091150;29;20278;-68
2022/05/29 01:44:57;;;;;;;2.10;2.00;;;11.00;99.90;;;;;;6091822;29;20312;-68
2022/05/29 01:48:11;;;;;;;1.98;1.92;;;10.90;99.90;;;;;;6091441;29;20304;-68
2022/05/29 01:51:19;;;;;;;1.90;1.80;;;11.00;99.90;;;;;;6091982;29;20281;-68
2022/05/29 01:54:31;;;;;;;1.92;1.77;;;11.00;99.90;;;;;;6091731;29;20304;-67
2022/05/29 01:57:39;;;;;;;1.90;1.90;;;11.00;99.90;;;;;;6090787;29;20300;-66
2022/05/29 02:00:47;;;;;;;1.70;1.70;;;11.00;99.90;;;;;;6091600;29;20328;-68
2022/05/29 02:03:54;;;;;;;1.80;1.77;;;11.00;99.90;;;;;;6091727;29;20316;-67
2022/05/29 02:10:39;;;;;;;1.70;1.70;;;11.00;99.90;;;;;;6095991;29;20268;-66
2022/05/29 02:13:49;;;;;;;5.28;1.70;;;11.00;99.90;;;;;;6095953;29;20296;-68
2022/05/29 02:17:03;;;;;;;1.70;1.60;;;10.90;99.90;;;;;;6095291;29;20479;-68
2022/05/29 02:20:13;;;;;;;1.50;1.50;;;10.90;99.90;;;;;;6096005;29;20272;-67
2022/05/29 02:23:24;;;;;;;1.60;1.60;;;10.90;99.90;;;;;;6095483;29;20300;-69
2022/05/29 02:26:36;;;;;;;1.60;1.60;;;10.90;99.90;;;;;;6095690;29;20280;-67
2022/05/29 02:29:42;;;;;;;1.80;1.58;;;10.90;99.90;;;;;;6095578;29;20301;-66
2022/05/29 02:32:59;;;;;;;1.45;1.45;;;10.90;99.90;;;;;;6095717;29;20473;-67
2022/05/29 02:36:20;;;;;;;1.80;1.80;;;10.80;99.90;;;;;;6095893;29;20277;-68
2022/05/29 02:39:45;;;;;;;1.60;1.60;;;10.90;99.90;;;;;;6095266;29;20305;-67
2022/05/29 02:43:01;;;;;;;7.78;1.73;;;10.90;99.90;;;;;;6095671;29;20297;-69
2022/05/29 02:46:17;;;;;;;1.52;1.50;;;11.00;99.90;;;;;;6095607;29;20272;-67
2022/05/29 02:49:43;;;;;;;1.38;1.30;;;10.90;99.90;;;;;;6093347;29;20321;-68
2022/05/29 02:52:52;;;;;;;1.60;1.50;;;10.90;99.90;;;;;;6095364;29;20308;-67
2022/05/29 02:55:58;;;;;;;1.50;1.50;;;10.90;99.90;;;;;;6094930;29;20273;-66
2022/05/29 02:59:04;;;;;;;1.60;1.60;;;10.90;99.90;;;;;;6095159;29;20436;-67
2022/05/29 03:02:17;;;;;;;1.40;1.40;;;11.00;99.90;;;;;;6093495;29;20273;-67
2022/05/29 03:05:28;;;;;;;1.40;1.40;;;11.00;99.90;;;;;;6088793;29;20411;-66
2022/05/29 03:08:47;;;;;;;1.50;1.50;;;11.10;99.90;;;;;;6070497;29;20603;-68
2022/05/29 03:11:53;;;;;;;1.60;1.52;;;11.10;99.90;;;;;;6088993;29;20269;-66
2022/05/29 03:15:15;;;;;;;1.75;1.50;;;11.10;99.90;;;;;;6094438;29;20308;-67
2022/05/29 03:18:34;;;;;;;1.40;1.40;;;11.10;99.90;;;;;;6094577;29;20316;-68
2022/05/29 03:21:49;;;;;;;4.13;1.60;;;11.10;99.90;;;;;;6094996;29;20280;-67
2022/05/29 03:25:00;;;;;;;1.77;1.70;;;11.20;99.90;;;;;;6094586;29;20296;-67
2022/05/29 03:28:11;;;;;;;1.35;1.35;;;11.10;99.90;;;;;;6094197;29;20312;-67
2022/05/29 03:31:20;;;;;;;1.40;1.40;;;11.20;99.90;;;;;;6094958;29;20277;-67
2022/05/29 03:34:26;;;;;;;3.35;1.45;;;11.00;99.90;;;;;;6094408;29;20575;-68
2022/05/29 03:37:33;;;;;;;1.48;1.48;;;11.00;99.90;;;;;;6094123;29;20296;-67
2022/05/29 03:40:39;;;;;;;1.58;1.58;;;11.10;99.90;;;;;;6094780;29;20276;-66
2022/05/29 03:43:45;;;;;;;1.40;1.40;;;11.00;99.90;;;;;;6094083;29;20300;-67
2022/05/29 03:46:54;;;;;;;1.35;1.33;;;11.10;99.90;;;;;;6094371;29;20296;-67
2022/05/29 03:49:59;;;;;;;1.30;1.30;;;11.10;99.90;;;;;;6093509;29;20607;-67
2022/05/29 03:53:07;;;;;;;1.40;1.40;;;11.10;99.90;;;;;;6093863;29;20300;-66
2022/05/29 03:56:13;;;;;;;1.60;1.50;;;11.10;99.90;;;;;;6094452;29;20324;-67
2022/05/29 03:59:18;;;;;;;1.33;1.33;;;11.10;99.90;;;;;;6093817;29;20308;-67
2022/05/29 04:02:23;;;;;;;1.60;1.45;;;11.00;99.90;;;;;;6093416;29;20280;-67
2022/05/29 04:05:29;;;;;;;1.67;1.67;;;11.10;99.90;;;;;;6094092;29;20280;-67
2022/05/29 04:12:05;;;;;;;1.38;1.38;;;11.30;99.90;;;;;;6092788;29;20269;-67
2022/05/29 04:15:12;;;;;;;1.30;1.30;;;11.30;99.90;;;;;;6093000;29;20281;-68
2022/05/29 04:18:20;;;;;;;1.50;1.40;;;11.30;99.90;;;;;;6093365;29;20313;-66
2022/05/29 04:21:26;;;;;;;1.42;1.42;;;11.20;99.90;;;;;;6093632;29;20276;-69
2022/05/29 04:24:33;;;;;;;1.30;1.30;;;11.30;99.90;;;;;;6093296;29;20304;-68
2022/05/29 04:27:38;;;;;;;1.33;1.33;;;10.90;99.90;;;;;;6092382;29;20565;-67
2022/05/29 04:30:44;;;;;;;1.30;1.30;;;11.00;99.90;;;;;;6093790;29;20289;-68
2022/05/29 04:33:49;;;;;;;1.35;1.25;;;11.10;99.90;;;;;;6091616;29;20487;-68
2022/05/29 04:36:56;;;;;;;2.60;1.65;;;11.00;99.90;;;;;;6093302;29;20276;-68
2022/05/29 04:40:03;;;;;;;1.35;1.35;;;11.00;99.90;;;;;;6092769;29;20310;-67
2022/05/29 04:43:12;;;;;;;1.08;1.08;;;11.10;99.90;;;;;;6093110;29;20300;-68
2022/05/29 04:46:18;;;;;;;1.40;1.38;;;11.20;99.90;;;;;;6093321;29;20276;-68
2022/05/29 04:49:23;;;;;;;1.30;1.30;;;11.20;99.90;;;;;;6093494;29;20603;-68
2022/05/29 04:52:29;;;;;;;1.30;1.30;;;11.20;99.90;;;;;;6099402;29;20297;-67
2022/05/29 04:55:36;;;;;;;1.85;1.30;;;11.30;99.90;;;;;;6099581;29;20278;-67
2022/05/29 04:58:42;;;;;;;1.10;1.10;;;11.00;99.90;;;;;;6097160;29;20308;-68
2022/05/29 05:01:47;;;;;;;2.30;1.40;;;11.20;99.90;;;;;;6092479;29;20276;-68
2022/05/29 05:04:52;;;;;;;1.20;1.20;;;11.10;99.90;;;;;;6092412;29;20300;-68
2022/05/29 05:07:57;;;;;;;1.60;1.20;;;11.20;99.90;;;;;;6091696;29;20305;-68
2022/05/29 05:11:06;;;;;;;1.25;1.25;;;11.20;99.90;;;;;;6092980;29;20349;-68
2022/05/29 05:14:13;;;;;;;2.42;1.38;;;11.20;99.90;;;;;;6092047;29;20300;-68
2022/05/29 05:17:19;;;;;;;1.17;1.17;;;11.20;99.90;;;;;;6092021;29;20292;-67
2022/05/29 05:20:24;;;;;;;1.30;1.30;;;11.30;99.90;;;;;;6091993;29;20579;-68
2022/05/29 05:23:29;;;;;;;0.90;0.90;;;11.30;99.90;;;;;;6091576;29;20300;-68
2022/05/29 05:26:36;;;;;;;1.05;1.05;;;11.30;99.90;;;;;;6091870;29;20441;-67
2022/05/29 05:29:41;;;;;;;1.17;1.08;;;11.40;99.90;;;;;;6091466;29;20340;-68
2022/05/29 05:32:47;;;;;;;0.98;0.98;;;11.20;99.90;;;;;;6091636;29;20301;-67
2022/05/29 05:35:52;;;;;;;1.20;1.20;;;11.10;99.90;;;;;;6092616;29;20280;-68
2022/05/29 05:38:57;;;;;;;0.93;0.93;;;11.30;99.90;;;;;;6091369;29;20309;-67
2022/05/29 05:42:06;;;;;;;1.25;0.90;;;11.30;99.90;;;;;;6092248;29;20275;-67
2022/05/29 05:45:13;;;;;;;1.10;1.10;;;11.30;99.90;;;;;;6091368;29;20280;-68
2022/05/29 05:48:19;;;;;;;1.00;1.00;;;11.40;99.90;;;;;;6091574;29;20299;-68
2022/05/29 05:51:24;;;;;;;1.05;1.05;;;11.40;99.90;;;;;;6091926;29;20280;-68
2022/05/29 05:54:31;;;;;;;1.00;1.00;;;11.50;99.90;;;;;;6091961;29;20299;-68
2022/05/29 05:57:38;;;;;;;1.40;1.30;;;11.50;99.90;;;;;;6091536;29;20296;-67
2022/05/29 06:00:44;;;;;;;1.20;0.90;;;11.60;99.90;;;;;;6090825;29;20296;-68
2022/05/29 06:03:50;;;;;;;1.05;0.90;;;11.60;99.90;;;;;;6091342;29;20296;-68
2022/05/29 06:06:55;;;;;;;0.82;0.82;;;11.50;99.90;;;;;;6091659;29;20396;-68
2022/05/29 06:10:00;;;;;;;1.00;1.00;;;11.50;99.90;;;;;;6091458;29;20422;-68
2022/05/29 06:13:08;;;;;;;1.85;0.90;;;11.50;99.90;;;;;;6091627;29;20317;-68
2022/05/29 06:16:19;;;;;;;0.90;0.90;;;11.40;99.90;;;;;;6092137;29;20272;-67
2022/05/29 06:19:24;;;;;;;0.90;0.90;;;11.40;99.90;;;;;;6091387;29;20556;-68
2022/05/29 06:22:29;;;;;;;1.33;1.00;;;11.50;99.90;;;;;;6091060;29;20333;-67
2022/05/29 06:25:35;;;;;;;1.13;1.08;;;11.50;99.90;;;;;;6091460;29;20276;-67
2022/05/29 06:28:42;;;;;;;1.05;0.98;;;11.70;99.90;;;;;;6090968;29;20301;-68
2022/05/29 06:31:47;;;;;;;1.10;1.08;;;11.70;99.90;;;;;;6090972;29;20285;-67
2022/05/29 06:34:53;;;;;;;1.20;1.20;;;11.70;99.90;;;;;;6092262;29;20331;-68
2022/05/29 06:37:59;;;;;;;1.00;1.00;;;11.70;99.90;;;;;;6091629;29;20304;-68
2022/05/29 06:41:06;;;;;;;1.50;1.10;;;11.80;99.90;;;;;;6091871;29;20296;-67
2022/05/29 06:44:13;;;;;;;1.10;1.10;;;11.90;99.90;;;;;;6091439;29;20301;-67
2022/05/29 06:47:19;;;;;;;1.10;1.10;;;11.80;99.90;;;;;;6091269;29;20277;-68
2022/05/29 06:50:25;;;;;;;1.00;1.00;;;11.70;99.90;;;;;;6093351;29;20353;-68
2022/05/29 06:53:30;;;;;;;1.58;1.20;;;11.80;99.90;;;;;;6096288;29;20319;-67
2022/05/29 06:56:35;;;;;;;1.83;1.17;;;11.90;99.90;;;;;;6096302;29;20281;-67
2022/05/29 07:09:48;;;;;;;2.38;1.30;;;12.10;99.90;;;;;;6094811;29;20300;-69
2022/05/29 07:12:54;;;;;;;3.08;1.20;;;12.20;99.90;;;;;;6093927;29;20306;-67
2022/05/29 07:16:01;;;;;;;4.75;1.60;;;12.40;99.90;;;;;;6095942;29;20283;-68
2022/05/29 07:19:07;;;;;;;1.58;1.35;;;12.40;99.90;;;;;;6095377;29;20519;-67
2022/05/29 07:22:13;;;;;;;1.35;1.35;;;12.60;99.90;;;;;;6095053;29;20292;-68
2022/05/29 07:25:19;;;;;;;5.18;1.50;;;12.60;99.90;;;;;;6095192;29;20469;-67
2022/05/29 07:28:25;;;;;;;1.23;1.15;;;12.70;99.90;;;;;;6093455;29;20417;-68
2022/05/29 07:31:32;;;;;;;1.30;1.30;;;12.70;99.90;;;;;;6094909;29;20285;-67
2022/05/29 07:34:37;;;;;;;1.30;1.30;;;12.70;99.90;;;;;;6094410;29;20300;-68
2022/05/29 07:37:42;;;;;;;1.13;1.13;;;12.60;99.90;;;;;;6095067;29;20292;-67
2022/05/29 07:40:48;;;;;;;1.35;1.30;;;12.70;99.90;;;;;;6095157;29;20380;-68
2022/05/29 07:43:53;;;;;;;1.00;1.00;;;12.80;99.90;;;;;;6094314;29;20300;-68
2022/05/29 07:47:00;;;;;;;1.20;1.20;;;12.70;99.90;;;;;;6094535;29;20272;-69
2022/05/29 07:50:08;;;;;;;1.25;1.25;;;12.70;99.90;;;;;;6092686;29;20547;-69
2022/05/29 07:53:16;;;;;;;2.08;1.15;;;12.70;99.90;;;;;;6094461;29;20297;-69
2022/05/29 07:56:21;;;;;;;3.30;1.27;;;12.80;99.90;;;;;;6094080;29;20276;-68
2022/05/29 07:59:26;;;;;;;1.13;1.13;;;12.90;99.90;;;;;;6093461;29;20315;-68
2022/05/29 08:02:34;;;;;;;1.30;1.30;;;12.80;99.90;;;;;;6092781;29;20587;-68
2022/05/29 08:05:42;;;;;;;1.40;1.30;;;12.80;99.90;;;;;;6092943;29;20285;-69
2022/05/29 08:08:47;;;;;;;2.38;1.20;;;12.80;99.90;;;;;;6093060;29;20317;-68
2022/05/29 08:11:52;;;;;;;1.27;1.27;;;12.80;99.90;;;;;;6094280;29;20288;-68
2022/05/29 08:14:57;;;;;;;1.38;1.38;;;12.50;99.90;;;;;;6093300;29;20631;-68
2022/05/29 08:18:05;;;;;;;2.08;1.20;;;12.70;99.90;;;;;;6093016;29;20300;-68
2022/05/29 08:21:10;;;;;;;5.05;1.33;;;12.80;99.90;;;;;;6093863;29;20292;-68
2022/05/29 08:31:21;;;;;;;1.42;1.20;;;12.80;99.90;;;;;;6093732;29;20284;-68
2022/05/29 08:34:27;;;;;;;1.08;1.08;;;12.80;99.90;;;;;;6093310;29;20387;-68
2022/05/29 08:37:39;;;;;;;3.33;1.38;;;13.00;99.90;;;;;;6093305;29;20296;-68
2022/05/29 08:40:49;;;;;;;1.23;1.10;;;13.00;99.90;;;;;;6093632;29;20276;-68
2022/05/29 08:44:05;;;;;;;1.20;1.20;;;13.00;99.90;;;;;;6093004;29;20296;-68
2022/05/29 08:47:12;;;;;;;1.20;1.20;;;13.20;99.90;;;;;;6092986;29;20490;-68
2022/05/29 08:50:23;;;;;;;1.30;1.30;;;13.10;99.90;;;;;;6093609;29;20277;-68
2022/05/29 08:53:36;;;;;;;1.20;1.20;;;13.20;99.90;;;;;;6092682;29;20311;-68
2022/05/29 08:56:51;;;;;;;1.45;1.35;;;13.20;99.90;;;;;;6092851;29;20411;-68
2022/05/29 08:59:59;;;;;;;1.33;1.33;;;13.10;99.90;;;;;;6092712;29;20312;-68
2022/05/29 09:03:25;;;;;;;1.13;1.13;;;12.90;99.90;;;;;;6090982;29;20478;-68
2022/05/29 09:06:35;;;;;;;1.13;1.13;;;13.00;99.90;;;;;;6092863;29;20577;-68
2022/05/29 09:09:44;;;;;;;1.05;1.05;;;13.00;99.90;;;;;;6092220;29;20687;-69
2022/05/29 09:12:53;;;;;;;1.58;0.98;;;13.10;99.90;;;;;;6091821;29;20312;-69
2022/05/29 09:16:03;;;;;;;1.13;1.13;;;13.30;99.90;;;;;;6092879;29;20360;-69
2022/05/29 09:19:15;;;;;;;1.10;1.10;;;13.20;99.90;;;;;;6092103;29;20301;-68
2022/05/29 09:22:27;;;;;;;1.10;1.10;;;13.10;99.90;;;;;;6092021;29;20340;-68
2022/05/29 09:25:35;;;;;;;2.22;1.00;;;13.10;99.90;;;;;;6092712;29;20272;-69
2022/05/29 09:28:42;;;;;;;1.02;1.02;;;13.20;99.90;;;;;;6091361;29;20473;-69
2022/05/29 09:31:48;;;;;;;1.10;1.00;;;13.30;99.90;;;;;;6091135;29;20280;-69
2022/05/29 09:35:01;;;;;;;1.00;1.00;;;13.30;99.90;;;;;;6092000;29;20551;-68
2022/05/29 09:38:19;;;;;;;1.30;1.30;;;13.20;99.90;;;;;;6091772;29;20312;-68
2022/05/29 09:41:30;;;;;;;1.00;1.00;;;13.20;99.90;;;;;;6092558;29;20445;-69
2022/05/29 09:44:35;;;;;;;1.10;1.10;;;13.30;99.90;;;;;;6091545;29;20308;-69
2022/05/29 09:51:04;;;;;;;1.00;1.00;;;13.50;99.90;;;;;;6091874;29;20273;-68
2022/05/29 09:54:19;;;;;;;1.40;1.30;;;13.50;99.90;;;;;;6091586;29;20328;-68
2022/05/29 09:57:27;;;;;;;1.33;1.33;;;13.50;99.90;;;;;;6091387;29;20463;-68
2022/05/29 10:00:37;;;;;;;1.10;1.10;;;13.40;99.90;;;;;;6092253;29;20576;-67
2022/05/29 10:03:50;;;;;;;1.10;1.10;;;13.40;99.90;;;;;;6091885;29;20304;-67
2022/05/29 10:06:59;;;;;;;3.22;1.52;;;13.70;99.90;;;;;;6093145;29;20274;-68
2022/05/29 10:10:09;;;;;;;1.20;1.20;;;13.90;99.90;;;;;;6094842;29;20576;-68
2022/05/29 10:13:37;;;;;;;0.95;0.95;;;14.00;99.90;;;;;;6102147;29;20316;-68
2022/05/29 10:16:42;;;;;;;1.40;1.40;;;14.00;99.90;;;;;;6105761;29;20273;-66
2022/05/29 10:19:48;;;;;;;0.90;0.90;;;14.10;99.90;;;;;;6094694;29;20300;-68
2022/05/29 10:22:55;;;;;;;1.35;1.10;;;14.20;99.90;;;;;;6090979;29;20545;-68
2022/05/29 10:26:07;;;;;;;0.98;0.98;;;14.30;99.90;;;;;;6094453;29;20268;-69
2022/05/29 10:29:18;;;;;;;1.20;1.20;;;14.30;99.90;;;;;;6095648;29;20410;-67
2022/05/29 10:32:27;;;;;;;1.00;1.00;;;14.40;99.90;;;;;;6095259;29;20276;-69
2022/05/29 10:35:35;;;;;;;1.08;1.08;;;14.40;99.90;;;;;;6095679;29;20272;-69
2022/05/29 10:38:41;;;;;;;1.13;1.10;;;14.40;99.90;;;;;;6095351;29;20301;-68
2022/05/29 10:41:48;;;;;;;1.67;0.90;;;14.50;99.90;;;;;;6095891;29;20276;-69
2022/05/29 10:44:59;;;;;;;1.10;1.10;;;14.40;99.90;;;;;;6095215;29;20304;-69
2022/05/29 10:48:31;;;;;;;1.00;1.00;;;14.30;99.90;;;;;;6095293;29;20309;-68
2022/05/29 10:51:58;;;;;;;1.08;1.08;;;14.30;99.90;;;;;;6096183;29;20276;-69
2022/05/29 10:55:23;;;;;;;2.83;1.02;;;14.40;99.90;;;;;;6094907;29;20308;-68
2022/05/29 10:58:55;;;;;;;1.45;1.20;;;14.50;99.90;;;;;;6094929;29;20312;-68
2022/05/29 11:06:05;;;;;;;1.13;1.13;;;14.40;99.90;;;;;;6094303;29;20597;-68
2022/05/29 11:09:36;;;;;;;0.90;0.90;;;14.50;99.90;;;;;;6094797;29;20300;-68
2022/05/29 11:12:55;;;;;;;1.00;1.00;;;14.40;99.90;;;;;;6094107;29;20387;-67
2022/05/29 11:16:10;;;;;;;1.02;1.00;;;14.40;99.90;;;;;;6094853;29;20551;-68
2022/05/29 11:20:11;;;;;;;1.00;1.00;;;14.40;99.90;;;;;;6094238;29;20464;-69
2022/05/29 11:23:48;;;;;;;1.67;1.00;;;14.40;99.90;;;;;;6014834;29;20308;-67
2022/05/29 11:27:03;;;;;;;0.80;0.80;;;14.70;99.90;;;;;;6094675;29;20300;-69
2022/05/29 11:30:14;;;;;;;1.35;0.90;;;14.80;99.90;;;;;;6094018;29;20276;-68
2022/05/29 11:33:44;;;;;;;0.93;0.93;;;14.80;99.90;;;;;;6094124;29;20300;-68
2022/05/29 11:37:03;;;;;;;1.00;1.00;;;15.00;99.90;;;;;;6094125;29;20276;-68
2022/05/29 11:40:15;;;;;;;1.00;1.00;;;15.10;99.90;;;;;;6093323;29;20280;-68
2022/05/29 11:43:28;;;;;;;1.00;1.00;;;15.30;99.90;;;;;;6093668;29;20301;-69
2022/05/29 11:53:35;;;;;;;1.17;1.17;;;15.50;99.90;;;;;;6092504;29;20299;-67
2022/05/29 11:56:44;;;;;;;0.90;0.90;;;15.60;99.90;;;;;;6093918;29;20276;-69
2022/05/29 11:59:55;;;;;;;1.00;1.00;;;15.40;99.40;;;;;;6107814;29;20300;-69
2022/05/29 12:03:22;;;;;;;1.20;1.10;;;15.40;99.90;;;;;;6093625;29;20300;-69
2022/05/29 12:06:34;;;;;;;2.05;1.10;;;15.40;99.90;;;;;;6093996;29;20277;-69
2022/05/29 12:09:45;;;;;;;1.17;1.17;;;15.50;99.50;;;;;;6092618;29;20312;-68
2022/05/29 12:12:57;;;;;;;3.40;1.08;;;15.40;99.90;;;;;;6093303;29;20304;-68
2022/05/29 12:16:07;;;;;;;1.65;1.00;;;15.50;99.20;;;;;;6093708;29;20446;-68
2022/05/29 12:19:19;;;;;;;1.30;1.20;;;15.40;99.50;;;;;;6093300;29;20300;-69
2022/05/29 12:22:30;;;;;;;2.30;1.10;;;15.30;99.50;;;;;;6093543;29;20281;-68
2022/05/29 12:25:40;;;;;;;1.00;1.00;;;15.30;99.90;;;;;;6076126;29;20305;-69
2022/05/29 12:28:52;;;;;;;0.95;0.95;;;15.40;99.90;;;;;;6093305;29;20304;-68
2022/05/29 12:32:01;;;;;;;1.00;0.90;;;15.30;99.50;;;;;;6093235;29;20316;-68
2022/05/29 12:35:10;;;;;;;1.20;1.00;;;15.20;99.20;;;;;;6093126;29;20285;-69
2022/05/29 12:38:31;;;;;;;1.00;1.00;;;15.20;98.70;;;;;;6092094;29;20296;-68
2022/05/29 12:42:18;;;;;;;0.90;0.90;;;15.10;98.80;;;;;;6094285;29;20281;-68
2022/05/29 12:45:41;;;;;;;0.90;0.90;;;15.20;99.20;;;;;;6094134;29;20292;-68
2022/05/29 12:49:18;;;;;;;1.00;1.00;;;15.40;99.90;;;;;;6093013;29;20454;-67
2022/05/29 12:52:25;;;;;;;0.93;0.93;;;15.50;98.90;;;;;;6093882;29;20285;-68
2022/05/29 12:55:52;;;;;;;0.90;0.90;;;15.70;98.80;;;;;;6093481;29;20280;-67
2022/05/29 12:59:50;;;;;;;0.82;0.82;;;15.80;99.20;;;;;;6092478;29;20304;-67
2022/05/29 13:03:42;;;;;;;1.40;0.95;;;15.80;98.30;;;;;;6074608;29;20312;-67
2022/05/29 13:07:21;;;;;;;1.00;1.00;;;15.80;98.80;;;;;;6092027;29;20469;-65
2022/05/29 13:10:28;;;;;;;1.00;1.00;;;15.90;98.70;;;;;;6091798;29;20293;-68
2022/05/29 13:13:39;;;;;;;1.00;1.00;;;15.70;97.50;;;;;;6092553;29;20300;-67
2022/05/29 13:16:46;;;;;;;1.50;1.08;;;15.60;98.00;;;;;;6091440;29;20272;-68
2022/05/29 13:20:11;;;;;;;1.48;1.48;;;15.80;98.30;;;;;;6092119;29;20308;-67
2022/05/29 13:23:31;;;;;;;3.42;1.30;;;15.60;98.30;;;;;;6091959;29;20296;-68
2022/05/29 13:26:36;;;;;;;1.38;1.38;;;15.50;98.50;;;;;;6092021;29;20292;-67
2022/05/29 13:29:45;;;;;;;1.02;1.02;;;15.50;98.60;;;;;;6092025;29;20380;-69
2022/05/29 13:32:50;;;;;;;1.35;1.35;;;15.30;98.70;;;;;;6091666;29;20300;-68
2022/05/29 13:35:56;;;;;;;1.20;1.20;;;15.20;99.20;;;;;;6092468;29;20288;-69
2022/05/29 13:39:01;;;;;;;1.10;1.10;;;15.10;99.50;;;;;;6091946;29;20304;-68
2022/05/29 13:42:23;;;;;;;1.15;1.10;;;15.10;99.00;;;;;;6091880;29;20483;-68
2022/05/29 13:46:08;;;;;;;1.10;1.10;;;15.00;99.50;;;;;;6092037;29;20296;-68
2022/05/29 13:49:22;;;;;;;1.08;1.08;;;15.20;99.30;;;;;;6091912;29;20304;-69
2022/05/29 13:52:31;;;;;;;1.00;1.00;;;15.10;99.50;;;;;;6091654;29;20584;-68
2022/05/29 13:55:57;;;;;;;1.20;1.15;;;15.10;98.70;;;;;;6091967;29;20280;-67
2022/05/29 14:06:20;;;;;;;1.13;1.13;;;14.90;99.10;;;;;;6096458;29;20293;-69
2022/05/29 14:09:41;;;;;;;1.52;1.15;;;14.80;98.80;;;;;;6096518;29;20355;-68
2022/05/29 14:13:11;;;;;;;1.15;1.15;;;14.80;98.80;;;;;;6096508;29;20301;-68
2022/05/29 14:16:39;;;;;;;1.10;1.10;;;14.80;99.00;;;;;;6096738;29;20576;-68
2022/05/29 14:20:14;;;;;;;1.10;1.10;;;14.80;98.90;;;;;;6079892;29;20304;-68
2022/05/29 14:23:44;;;;;;;1.25;1.17;;;14.90;99.30;;;;;;6096346;29;20345;-69
2022/05/29 14:27:21;;;;;;;1.38;1.13;;;15.00;99.10;;;;;;6096016;29;20312;-69
2022/05/29 14:30:50;;;;;;;1.65;1.02;;;15.00;98.80;;;;;;6095529;29;20285;-70
2022/05/29 14:34:42;;;;;;;1.33;1.23;;;14.90;98.80;;;;;;6095731;29;20463;-69
2022/05/29 14:38:20;;;;;;;1.00;1.00;;;14.90;98.70;;;;;;6095614;29;20260;-69
2022/05/29 14:41:31;;;;;;;1.02;1.02;;;14.90;99.00;;;;;;6096240;29;20425;-68
2022/05/29 14:44:43;;;;;;;1.20;1.20;;;15.00;99.00;;;;;;6095635;29;20319;-68
2022/05/29 14:47:55;;;;;;;1.00;1.00;;;15.00;98.60;;;;;;6095413;29;20302;-67
2022/05/29 14:51:05;;;;;;;1.20;1.10;;;15.00;98.20;;;;;;6095263;29;20277;-67
2022/05/29 14:54:18;;;;;;;1.30;1.30;;;15.00;98.50;;;;;;6089144;29;20589;-68
2022/05/29 14:57:27;;;;;;;1.63;1.63;;;15.10;98.90;;;;;;6095906;29;20272;-68
2022/05/29 15:00:36;;;;;;;1.58;1.52;;;15.20;98.70;;;;;;6094912;29;20293;-68
2022/05/29 15:03:44;;;;;;;1.35;1.35;;;15.20;98.50;;;;;;6095350;29;20296;-68
2022/05/29 15:10:34;;;;;;;2.65;1.30;;;15.30;97.50;;;;;;6094507;29;20466;-69
2022/05/29 15:14:00;;;;;;;1.13;1.13;;;15.60;98.10;;;;;;6095152;29;20300;-69
2022/05/29 15:17:06;;;;;;;1.20;1.20;;;15.70;97.80;;;;;;6095431;29;20284;-68
2022/05/29 15:27:07;;;;;;;1.10;1.10;;;15.40;97.70;;;;;;6095732;29;20296;-67
2022/05/29 15:30:17;;;;;;;1.30;1.30;;;15.40;98.30;;;;;;6094931;29;20300;-69
2022/05/29 15:33:29;;;;;;;1.10;1.10;;;15.30;97.40;;;;;;6095808;29;20305;-67
2022/05/29 15:36:45;;;;;;;1.52;1.42;;;15.20;97.30;;;;;;6098039;29;20281;-68
2022/05/29 15:39:55;;;;;;;1.42;1.42;;;15.30;97.70;;;;;;6097431;29;20607;-67
2022/05/29 15:43:21;;;;;;;1.30;1.30;;;15.40;97.70;;;;;;6108314;29;20253;-68
2022/05/29 15:47:16;;;;;;;1.70;1.60;;;15.40;97.20;;;;;;6109218;29;20296;-66
2022/05/29 15:50:34;;;;;;;1.63;1.30;;;15.40;97.30;;;;;;6096358;29;20468;-67
2022/05/29 15:54:22;;;;;;;20.48;18.58;;;15.40;97.30;;;;;;6093283;29;20293;-69
2022/05/29 15:57:42;;;;;;;4.20;4.10;;;15.50;97.00;;;;;;6094484;29;20280;-67
2022/05/29 16:01:05;;;;;;;14.52;9.90;;;15.60;97.40;;;;;;6092305;29;20280;-69
2022/05/29 16:04:37;;;;;;;1.77;1.73;;;15.60;97.80;;;;;;6093709;29;20300;-69
2022/05/29 16:07:44;;;;;;;1.30;1.30;;;15.70;96.80;;;;;;6093373;29;20301;-69
2022/05/29 16:10:52;;;;;;;1.00;1.00;;;15.80;96.20;;;;;;6094342;29;20281;-68
2022/05/29 16:13:59;;;;;;;1.20;1.20;;;15.70;96.40;;;;;;6093287;29;20300;-69
2022/05/29 16:17:10;;;;;;;1.08;1.08;;;15.60;95.80;;;;;;6094029;29;20300;-68
2022/05/29 16:20:31;;;;;;;1.30;1.15;;;15.50;95.90;;;;;;6093935;29;20380;-69
2022/05/29 16:23:49;;;;;;;2.45;2.22;;;15.60;96.10;;;;;;6092806;29;20304;-69
2022/05/29 16:27:02;;;;;;;11.30;7.35;;;15.70;98.40;;;;;;6093387;29;20312;-68
2022/05/29 16:30:11;;;;;;;2.42;2.22;;;15.60;99.30;;;;;;6093743;29;20441;-67
2022/05/29 16:33:22;;;;;;;2.08;1.83;;;15.80;99.30;;;;;;6092179;29;20304;-69
2022/05/29 16:36:32;;;;;;;1.30;1.30;;;15.80;99.60;;;;;;6092424;29;20465;-69
2022/05/29 16:50:19;;;;;;;1.10;1.10;;;15.40;99.90;;;;;;6093122;29;20309;-67
2022/05/29 16:53:43;;;;;;;1.48;1.15;;;15.30;99.90;;;;;;6107418;29;20300;-68
2022/05/29 16:56:52;;;;;;;5.53;1.30;;;15.30;99.90;;;;;;6093435;29;20276;-69
2022/05/29 17:00:02;;;;;;;1.20;1.20;;;15.20;99.90;;;;;;6092456;29;20300;-68
2022/05/29 17:03:13;;;;;;;1.30;1.30;;;15.10;99.90;;;;;;6092569;29;20300;-68
2022/05/29 17:06:33;;;;;;;1.30;1.30;;;15.30;99.90;;;;;;6093178;29;20406;-70
2022/05/29 17:09:51;;;;;;;1.65;1.40;;;15.20;99.90;;;;;;6093117;29;20592;-68
2022/05/29 17:12:59;;;;;;;1.20;1.20;;;15.10;99.90;;;;;;6092568;29;20482;-70
2022/05/29 17:16:06;;;;;;;1.30;1.30;;;15.10;99.90;;;;;;6093525;29;20277;-69
2022/05/29 17:19:13;;;;;;;1.23;1.23;;;15.10;99.90;;;;;;6092164;29;20304;-69
2022/05/29 17:22:24;;;;;;;1.92;1.20;;;15.10;99.90;;;;;;6091690;29;20284;-68
2022/05/29 17:25:35;;;;;;;1.95;0.93;;;15.00;99.90;;;;;;6091998;29;20280;-68
2022/05/29 17:29:02;;;;;;;1.08;1.08;;;15.00;99.90;;;;;;6091560;29;20308;-68
2022/05/29 17:32:16;;;;;;;1.05;1.05;;;14.90;99.90;;;;;;6092248;29;20276;-68
2022/05/29 17:35:25;;;;;;;1.00;1.00;;;14.90;99.90;;;;;;6091781;29;20296;-69
2022/05/29 17:39:10;;;;;;;1.10;1.10;;;14.70;99.90;;;;;;6090876;29;20303;-68
2022/05/29 17:42:19;;;;;;;1.45;0.70;;;14.60;99.90;;;;;;6091957;29;20272;-68
2022/05/29 17:45:25;;;;;;;3.35;1.10;;;14.60;99.90;;;;;;6092346;29;20407;-69
2022/05/29 17:48:43;;;;;;;1.48;1.10;;;14.60;99.90;;;;;;6091668;29;20308;-71